Portada
METAR-TAF:

METAR-TAF

Aeroports :

Tarawa, Kiribati

latitud: 01-21N, longitud: 172-55E, altitud: 2 m

Observació

L'informe es va fer fa 40 minuts, a les 10:00 UTC
Vent 13 kt del Est/Nord-Est
Temperatura 27°C
Humitat 84%
Pressió 1010 hPa
Visibilitat 10 km o més
Escasses núvols a una alçada de 1900 ft

METAR: NGTA 251000Z 06013KT 9999 FEW019 27/24 Q1010

Hora: 00:40 (10:40 UTC)

Pronòstic

L'informe es va fer fa 5 hores i 19 minuts, a les 05:21 UTC
Pronòstic vàlid del 25 a les 06 UTC al 26 a les 06 UTC
Vent 10 kt del Est/Sud-Est
Visibilitat 10 km o més
Núvols disperses a una alçada de 2000 ft

TAF: NGTA 250521Z 2506/2606 11010KT 9999 SCT020

Observacions i pronòstics meteorològics de més de 4000 aeroports (METAR i TAF).

Les estacions disponibles són els punts grocs i vermells al mapa.

Posi el ratolí al punt desitjat per veure el nom de l'estació.

Feu clic per veure les observacions i els pronòstics meteorològics.

Per canviar el mapa: feu clic els botons verds amb una creu de color negre per apropar; al botó verd amb un guió per allunyar la imatge; o en les fletxes verdes per a mapes adjacents.


METAR-TAF: